Time;durP1;ratioP1;P1;durP2;ratioP2;P2;SDS_P1;SDS_P2;PMS_P1;PMS_P2;Temp;Humidity;BMP_temperature;BMP_pressure;BME280_temperature;BME280_humidity;BME280_pressure;Samples;Min_cycle;Max_cycle;Signal;HPM_P1;HPM_P2
2024/01/16 00:01:06;;;;;;;0.50;0.40;;;19.30;51.00;;;;;;5048662;28;20070;-47
2024/01/16 00:03:32;;;;;;;1.83;0.50;;;19.40;51.10;;;;;;5049988;28;20039;-47
2024/01/16 00:05:57;;;;;;;0.70;0.45;;;19.30;51.00;;;;;;5052768;28;20029;-47
2024/01/16 00:08:23;;;;;;;0.70;0.47;;;19.30;51.00;;;;;;5048299;28;20885;-47
2024/01/16 00:10:50;;;;;;;0.70;0.47;;;19.30;51.00;;;;;;5049752;28;20036;-48
2024/01/16 00:13:16;;;;;;;0.77;0.40;;;19.40;51.00;;;;;;5049311;28;20489;-47
2024/01/16 00:15:42;;;;;;;0.32;0.32;;;19.40;51.10;;;;;;5047428;28;20102;-48
2024/01/16 00:18:08;;;;;;;1.35;0.63;;;19.40;51.00;;;;;;5053166;28;20028;-47
2024/01/16 00:20:34;;;;;;;0.60;0.30;;;19.40;51.10;;;;;;5050178;28;20031;-48
2024/01/16 00:23:00;;;;;;;1.33;0.70;;;19.40;51.10;;;;;;5051573;28;20033;-47
2024/01/16 00:25:25;;;;;;;0.52;0.45;;;19.40;51.10;;;;;;5050813;28;20504;-49
2024/01/16 00:27:51;;;;;;;0.90;0.47;;;19.40;51.10;;;;;;5056867;28;20025;-50
2024/01/16 00:30:17;;;;;;;1.48;0.50;;;19.40;51.10;;;;;;5060423;28;20029;-52
2024/01/16 00:32:42;;;;;;;0.90;0.50;;;19.40;51.00;;;;;;5062856;28;20158;-48
2024/01/16 00:35:08;;;;;;;0.68;0.47;;;19.40;51.00;;;;;;5059320;28;20393;-53
2024/01/16 00:37:35;;;;;;;0.60;0.40;;;19.40;51.00;;;;;;5062818;28;20567;-48
2024/01/16 00:40:01;;;;;;;1.30;0.40;;;19.40;51.00;;;;;;5055271;28;20048;-50
2024/01/16 00:42:26;;;;;;;0.50;0.35;;;19.40;51.00;;;;;;5049215;28;20044;-47
2024/01/16 00:44:52;;;;;;;0.95;0.40;;;19.40;51.00;;;;;;5047141;28;20547;-50
2024/01/16 00:47:17;;;;;;;1.85;0.47;;;19.40;51.00;;;;;;5053578;28;20033;-50
2024/01/16 00:49:43;;;;;;;0.73;0.40;;;19.40;51.00;;;;;;5050413;28;20047;-50
2024/01/16 00:52:09;;;;;;;0.43;0.38;;;19.40;51.00;;;;;;5048284;28;20409;-47
2024/01/16 00:54:35;;;;;;;0.47;0.30;;;19.40;51.00;;;;;;5050476;28;20612;-53
2024/01/16 00:57:00;;;;;;;1.25;0.50;;;19.40;51.00;;;;;;5048308;28;20124;-46
2024/01/16 00:59:26;;;;;;;0.63;0.30;;;19.40;51.00;;;;;;5046316;28;21071;-50
2024/01/16 01:01:51;;;;;;;0.60;0.50;;;19.40;51.00;;;;;;5050518;28;20017;-48
2024/01/16 01:04:17;;;;;;;0.68;0.50;;;19.40;51.00;;;;;;5041428;28;20028;-47
2024/01/16 01:06:42;;;;;;;1.08;0.68;;;19.40;51.10;;;;;;5045902;28;20216;-47
2024/01/16 01:09:11;;;;;;;0.80;0.50;;;19.30;51.10;;;;;;5046922;28;20473;-53
2024/01/16 01:11:37;;;;;;;0.98;0.50;;;19.30;51.20;;;;;;5051351;28;20025;-48
2024/01/16 01:14:03;;;;;;;0.90;0.32;;;19.20;51.30;;;;;;5045758;28;20026;-47
2024/01/16 01:16:28;;;;;;;1.00;0.50;;;19.20;51.50;;;;;;5051048;28;20662;-50
2024/01/16 01:18:54;;;;;;;0.50;0.30;;;19.10;51.60;;;;;;5047722;28;20033;-48
2024/01/16 01:21:19;;;;;;;1.05;0.30;;;19.10;51.70;;;;;;5048816;28;20048;-55
2024/01/16 01:23:45;;;;;;;0.60;0.40;;;19.00;51.90;;;;;;5052497;28;20082;-48
2024/01/16 01:26:13;;;;;;;0.93;0.50;;;18.90;52.00;;;;;;5049445;28;20025;-55
2024/01/16 01:28:40;;;;;;;0.85;0.60;;;18.90;52.10;;;;;;5046357;28;20041;-52
2024/01/16 01:31:08;;;;;;;0.65;0.40;;;18.80;51.90;;;;;;5049658;28;20427;-48
2024/01/16 01:33:33;;;;;;;0.50;0.20;;;18.80;52.90;;;;;;5036384;28;20036;-48
2024/01/16 01:35:59;;;;;;;1.60;0.50;;;18.70;52.30;;;;;;5045377;28;20037;-56
2024/01/16 01:38:24;;;;;;;0.25;0.25;;;18.70;52.40;;;;;;5058197;28;20147;-48
2024/01/16 01:40:50;;;;;;;0.80;0.40;;;18.70;52.40;;;;;;5056799;28;20397;-49
2024/01/16 01:43:20;;;;;;;0.47;0.40;;;18.70;52.30;;;;;;5052979;28;20187;-52
2024/01/16 01:45:58;;;;;;;0.57;0.40;;;18.70;52.40;;;;;;5053930;28;20099;-48
2024/01/16 01:48:24;;;;;;;1.05;0.50;;;18.70;52.40;;;;;;5051409;28;20036;-55
2024/01/16 01:50:50;;;;;;;0.50;0.35;;;18.70;52.40;;;;;;5056476;28;20033;-51
2024/01/16 01:53:16;;;;;;;0.60;0.40;;;18.70;52.30;;;;;;5050982;28;20033;-47
2024/01/16 01:55:42;;;;;;;0.70;0.45;;;18.70;52.30;;;;;;5052132;28;20407;-57
2024/01/16 01:58:07;;;;;;;0.45;0.35;;;18.80;52.30;;;;;;5053810;28;20033;-49
2024/01/16 02:00:33;;;;;;;0.63;0.30;;;18.80;52.00;;;;;;5046496;28;20123;-48
2024/01/16 02:03:00;;;;;;;0.63;0.40;;;18.80;51.90;;;;;;5046881;28;20032;-50
2024/01/16 02:05:26;;;;;;;0.60;0.52;;;18.90;51.80;;;;;;5055472;28;20029;-51
2024/01/16 02:07:52;;;;;;;1.58;0.30;;;18.90;51.60;;;;;;5052018;28;20498;-46
2024/01/16 02:10:17;;;;;;;0.47;0.35;;;19.00;51.50;;;;;;5047534;28;20040;-46
2024/01/16 02:12:43;;;;;;;0.55;0.40;;;19.00;51.40;;;;;;5056142;28;20033;-52
2024/01/16 02:15:08;;;;;;;0.98;0.63;;;19.10;51.30;;;;;;5050456;28;20128;-48
2024/01/16 02:17:34;;;;;;;0.65;0.30;;;19.10;51.20;;;;;;5049409;28;20129;-45
2024/01/16 02:19:59;;;;;;;0.38;0.30;;;19.20;51.10;;;;;;5053339;28;20033;-49
2024/01/16 02:22:28;;;;;;;0.38;0.38;;;19.30;51.10;;;;;;5050738;28;20052;-55
2024/01/16 02:24:55;;;;;;;1.10;0.32;;;19.30;51.00;;;;;;5052975;28;20506;-47
2024/01/16 02:27:21;;;;;;;0.25;0.20;;;19.30;50.80;;;;;;5052546;28;20067;-50
2024/01/16 02:29:46;;;;;;;0.73;0.40;;;19.40;50.80;;;;;;5043045;28;20789;-46
2024/01/16 02:32:12;;;;;;;0.70;0.40;;;19.40;50.70;;;;;;5049692;28;20033;-47
2024/01/16 02:34:38;;;;;;;0.30;0.20;;;19.50;50.70;;;;;;5058864;28;20044;-46
2024/01/16 02:37:04;;;;;;;0.90;0.32;;;19.50;50.60;;;;;;5050448;28;20094;-47
2024/01/16 02:39:29;;;;;;;0.52;0.30;;;19.60;50.60;;;;;;5051242;28;20098;-56
2024/01/16 02:41:55;;;;;;;0.60;0.30;;;19.60;50.50;;;;;;5052124;28;20029;-55
2024/01/16 02:44:20;;;;;;;0.63;0.43;;;19.60;50.50;;;;;;5050712;28;20029;-47
2024/01/16 02:46:46;;;;;;;0.35;0.30;;;19.60;50.40;;;;;;5045034;28;20367;-49
2024/01/16 02:49:11;;;;;;;0.30;0.20;;;19.60;50.40;;;;;;5051638;28;20082;-50
2024/01/16 02:51:37;;;;;;;0.85;0.35;;;19.70;50.30;;;;;;5050744;28;20140;-51
2024/01/16 02:54:05;;;;;;;0.40;0.30;;;19.70;50.30;;;;;;5053852;28;20025;-48
2024/01/16 02:56:30;;;;;;;0.65;0.30;;;19.70;50.30;;;;;;5052210;28;20026;-51
2024/01/16 02:58:56;;;;;;;0.52;0.30;;;19.70;50.20;;;;;;5045509;28;20059;-49
2024/01/16 03:01:21;;;;;;;0.50;0.28;;;19.70;50.90;;;;;;5051128;28;20060;-51
2024/01/16 03:03:47;;;;;;;0.30;0.22;;;19.70;50.20;;;;;;5035875;28;20397;-50
2024/01/16 03:06:24;;;;;;;0.63;0.22;;;19.80;50.30;;;;;;5049722;28;20167;-49
2024/01/16 03:08:51;;;;;;;0.40;0.30;;;19.70;50.20;;;;;;5051621;28;20048;-47
2024/01/16 03:11:17;;;;;;;0.50;0.20;;;19.70;50.30;;;;;;5047828;28;20036;-48
2024/01/16 03:13:43;;;;;;;0.55;0.40;;;19.70;50.40;;;;;;5049115;28;20041;-47
2024/01/16 03:16:10;;;;;;;0.35;0.30;;;19.60;50.50;;;;;;5048739;28;20394;-49
2024/01/16 03:18:37;;;;;;;0.43;0.30;;;19.60;50.60;;;;;;5048726;28;20036;-48
2024/01/16 03:21:03;;;;;;;0.88;0.28;;;19.60;50.70;;;;;;5048273;28;20074;-49
2024/01/16 03:23:29;;;;;;;0.32;0.32;;;19.50;50.70;;;;;;5050663;28;20043;-47
2024/01/16 03:25:54;;;;;;;0.82;0.40;;;19.50;50.70;;;;;;5047853;28;20394;-48
2024/01/16 03:28:20;;;;;;;0.47;0.30;;;19.50;50.80;;;;;;5047922;28;20432;-49
2024/01/16 03:30:46;;;;;;;0.40;0.20;;;19.40;50.80;;;;;;5052135;28;20040;-49
2024/01/16 03:33:11;;;;;;;0.47;0.28;;;19.40;51.00;;;;;;5051191;28;20495;-48
2024/01/16 03:35:37;;;;;;;0.85;0.30;;;19.40;51.00;;;;;;5049860;28;20086;-49
2024/01/16 03:38:02;;;;;;;0.20;0.20;;;19.30;51.10;;;;;;5049444;28;20404;-48
2024/01/16 03:40:33;;;;;;;0.35;0.35;;;19.30;51.20;;;;;;5047537;28;20509;-49
2024/01/16 03:42:59;;;;;;;0.30;0.28;;;19.30;51.30;;;;;;5050936;28;20049;-49
2024/01/16 03:45:25;;;;;;;0.52;0.20;;;19.20;51.40;;;;;;5051434;28;20528;-47
2024/01/16 03:47:50;;;;;;;0.30;0.30;;;19.20;51.50;;;;;;5047806;28;20103;-49
2024/01/16 03:50:16;;;;;;;0.28;0.22;;;19.20;51.50;;;;;;5053013;28;20385;-47
2024/01/16 03:52:41;;;;;;;0.65;0.32;;;19.20;51.60;;;;;;5051526;28;20689;-49
2024/01/16 03:55:07;;;;;;;0.47;0.40;;;19.10;51.70;;;;;;5049157;28;20025;-48
2024/01/16 03:57:32;;;;;;;0.43;0.30;;;19.10;51.70;;;;;;5053672;28;20045;-48
2024/01/16 03:59:58;;;;;;;0.50;0.50;;;19.10;51.80;;;;;;5048801;28;20025;-50
2024/01/16 04:02:23;;;;;;;0.73;0.20;;;19.10;51.70;;;;;;5044735;28;20041;-50
2024/01/16 04:04:49;;;;;;;0.57;0.28;;;19.00;51.80;;;;;;5046899;28;20964;-48
2024/01/16 04:07:14;;;;;;;0.40;0.22;;;19.00;51.80;;;;;;5043219;28;20048;-49
2024/01/16 04:09:42;;;;;;;0.65;0.30;;;19.00;51.90;;;;;;5050086;28;20032;-47
2024/01/16 04:12:08;;;;;;;0.55;0.40;;;19.00;51.90;;;;;;5045449;28;20059;-48
2024/01/16 04:14:34;;;;;;;0.43;0.28;;;19.00;51.90;;;;;;5044888;28;20072;-49
2024/01/16 04:17:00;;;;;;;0.25;0.25;;;19.00;51.90;;;;;;5050313;28;20016;-47
2024/01/16 04:19:25;;;;;;;0.38;0.20;;;19.00;51.90;;;;;;5047137;28;20410;-49
2024/01/16 04:21:50;;;;;;;0.28;0.20;;;19.00;51.90;;;;;;5052556;28;20103;-49
2024/01/16 04:24:16;;;;;;;0.60;0.20;;;19.00;51.90;;;;;;5053116;28;20025;-49
2024/01/16 04:26:42;;;;;;;0.43;0.20;;;18.90;51.90;;;;;;5050138;28;20052;-50
2024/01/16 04:29:08;;;;;;;1.05;0.30;;;18.90;51.90;;;;;;5045802;28;20036;-49
2024/01/16 04:31:40;;;;;;;0.32;0.20;;;18.90;51.90;;;;;;5050653;28;20086;-49
2024/01/16 04:34:05;;;;;;;0.80;0.40;;;18.90;51.80;;;;;;5048393;28;20018;-48
2024/01/16 04:36:31;;;;;;;0.40;0.30;;;18.90;52.00;;;;;;5049082;28;20021;-48
2024/01/16 04:38:56;;;;;;;0.20;0.20;;;19.00;52.00;;;;;;5053031;28;20842;-47
2024/01/16 04:41:22;;;;;;;1.83;0.35;;;18.90;52.00;;;;;;5052232;28;20021;-48
2024/01/16 04:43:49;;;;;;;0.40;0.20;;;18.90;51.90;;;;;;5050008;28;20660;-49
2024/01/16 04:46:15;;;;;;;0.73;0.22;;;18.90;51.90;;;;;;5050935;28;20037;-51
2024/01/16 04:48:41;;;;;;;0.20;0.20;;;18.90;51.90;;;;;;5047319;28;20083;-49
2024/01/16 04:51:07;;;;;;;0.32;0.20;;;18.90;51.90;;;;;;5048530;28;20028;-47
2024/01/16 04:53:33;;;;;;;0.75;0.28;;;18.90;51.90;;;;;;5049152;28;20025;-50
2024/01/16 04:55:58;;;;;;;0.63;0.40;;;18.90;51.80;;;;;;5039554;28;20628;-47
2024/01/16 04:58:24;;;;;;;0.50;0.25;;;18.90;51.80;;;;;;5050400;28;20106;-48
2024/01/16 05:00:49;;;;;;;0.30;0.20;;;18.90;51.80;;;;;;5050958;28;20136;-51
2024/01/16 05:03:15;;;;;;;0.52;0.20;;;18.90;51.80;;;;;;5049102;28;20087;-48
2024/01/16 05:05:41;;;;;;;0.43;0.30;;;18.90;51.80;;;;;;5049464;28;20613;-48
2024/01/16 05:08:06;;;;;;;0.82;0.28;;;18.90;51.80;;;;;;5041071;28;20573;-49
2024/01/16 05:10:32;;;;;;;0.25;0.20;;;18.90;51.80;;;;;;5046544;28;20499;-49
2024/01/16 05:12:57;;;;;;;1.45;0.40;;;18.90;51.70;;;;;;5055564;28;20033;-49
2024/01/16 05:15:23;;;;;;;0.30;0.20;;;18.90;51.70;;;;;;5053190;28;20036;-48
2024/01/16 05:17:48;;;;;;;0.30;0.20;;;18.90;51.70;;;;;;5053432;28;20067;-48
2024/01/16 05:20:14;;;;;;;0.30;0.30;;;18.90;51.60;;;;;;5056108;28;21376;-47
2024/01/16 05:22:39;;;;;;;0.30;0.20;;;18.90;51.60;;;;;;5029257;28;20037;-49
2024/01/16 05:25:07;;;;;;;0.60;0.20;;;18.90;51.60;;;;;;5048989;28;20040;-50
2024/01/16 05:27:33;;;;;;;0.60;0.32;;;19.00;51.60;;;;;;5055569;28;20072;-49
2024/01/16 05:30:00;;;;;;;1.67;0.32;;;18.90;51.50;;;;;;5052214;28;20543;-47
2024/01/16 05:32:26;;;;;;;0.63;0.30;;;18.90;51.50;;;;;;5051333;28;20033;-48
2024/01/16 05:34:52;;;;;;;0.73;0.20;;;18.90;51.60;;;;;;5057549;28;20035;-47
2024/01/16 05:37:19;;;;;;;0.40;0.30;;;18.90;51.50;;;;;;5056348;28;20033;-49
2024/01/16 05:39:45;;;;;;;0.45;0.20;;;19.00;51.60;;;;;;5053002;28;20036;-47
2024/01/16 05:42:11;;;;;;;0.82;0.30;;;19.00;51.50;;;;;;5057352;28;20037;-47
2024/01/16 05:44:37;;;;;;;0.10;0.10;;;19.00;51.50;;;;;;5051916;28;20503;-49
2024/01/16 05:47:03;;;;;;;0.25;0.22;;;19.00;51.50;;;;;;5053807;28;20045;-49
2024/01/16 05:49:29;;;;;;;0.30;0.20;;;19.00;51.50;;;;;;5054134;28;20021;-48
2024/01/16 05:51:54;;;;;;;0.43;0.30;;;19.00;51.60;;;;;;5052856;28;20031;-49
2024/01/16 05:54:20;;;;;;;0.88;0.47;;;19.00;51.50;;;;;;5056236;28;20166;-48
2024/01/16 05:56:45;;;;;;;0.60;0.20;;;19.00;51.50;;;;;;5056192;28;20025;-50
2024/01/16 05:59:11;;;;;;;0.85;0.30;;;19.00;51.50;;;;;;5042262;28;21068;-49
2024/01/16 06:01:37;;;;;;;0.63;0.35;;;19.00;51.40;;;;;;5053978;28;20032;-49
2024/01/16 06:04:03;;;;;;;0.45;0.28;;;19.00;51.40;;;;;;5056946;28;20152;-49
2024/01/16 06:06:28;;;;;;;0.55;0.20;;;19.00;51.50;;;;;;5051627;28;20132;-47
2024/01/16 06:08:56;;;;;;;0.57;0.30;;;19.00;51.50;;;;;;5057059;28;20036;-48
2024/01/16 06:11:31;;;;;;;0.80;0.30;;;19.00;51.50;;;;;;5052381;28;20021;-47
2024/01/16 06:13:57;;;;;;;0.35;0.30;;;19.00;51.50;;;;;;5053141;28;20037;-48
2024/01/16 06:16:23;;;;;;;0.47;0.30;;;19.00;51.50;;;;;;5057023;28;20032;-49
2024/01/16 06:18:48;;;;;;;0.20;0.20;;;19.00;51.50;;;;;;5053154;28;20037;-50
2024/01/16 06:21:14;;;;;;;0.43;0.20;;;19.00;51.40;;;;;;5050502;28;20029;-47
2024/01/16 06:23:40;;;;;;;0.35;0.20;;;19.00;51.40;;;;;;5037174;28;20040;-48
2024/01/16 06:26:08;;;;;;;0.65;0.30;;;18.90;51.40;;;;;;5054160;28;20135;-49
2024/01/16 06:28:33;;;;;;;0.30;0.20;;;18.90;51.40;;;;;;5049341;28;20032;-49
2024/01/16 06:30:59;;;;;;;0.45;0.30;;;19.00;52.10;;;;;;5052086;28;20035;-49
2024/01/16 06:33:25;;;;;;;1.58;0.22;;;19.00;51.30;;;;;;5037921;28;20684;-49
2024/01/16 06:35:51;;;;;;;0.45;0.25;;;19.00;51.50;;;;;;5051566;28;20389;-50
2024/01/16 06:38:16;;;;;;;1.10;0.40;;;19.00;51.50;;;;;;5042283;28;20035;-49
2024/01/16 06:40:42;;;;;;;0.68;0.25;;;19.00;51.50;;;;;;5050912;28;20040;-47
2024/01/16 06:43:08;;;;;;;0.60;0.30;;;19.00;51.50;;;;;;5053905;28;20056;-49
2024/01/16 06:45:34;;;;;;;0.50;0.30;;;19.00;51.50;;;;;;5055433;28;20031;-48
2024/01/16 06:47:59;;;;;;;1.15;0.40;;;19.00;51.50;;;;;;5053438;28;20032;-49
2024/01/16 06:50:25;;;;;;;0.60;0.60;;;18.90;51.40;;;;;;5056601;28;20040;-50
2024/01/16 06:52:50;;;;;;;0.82;0.60;;;19.00;51.40;;;;;;5055991;28;20040;-49
2024/01/16 06:55:16;;;;;;;0.70;0.47;;;19.00;51.50;;;;;;5051396;28;20070;-49
2024/01/16 06:57:42;;;;;;;2.75;0.60;;;19.00;51.50;;;;;;5056366;28;20035;-49
2024/01/16 07:00:07;;;;;;;2.28;0.65;;;19.00;51.40;;;;;;5055198;28;20031;-49
2024/01/16 07:02:33;;;;;;;2.30;0.95;;;19.00;51.40;;;;;;5052706;28;20040;-48
2024/01/16 07:04:59;;;;;;;2.95;0.60;;;19.00;51.40;;;;;;5058549;28;20045;-48
2024/01/16 07:07:24;;;;;;;2.03;0.65;;;19.00;51.40;;;;;;5035137;28;20565;-49
2024/01/16 07:09:50;;;;;;;1.10;0.73;;;19.00;51.40;;;;;;5049663;28;20029;-49
2024/01/16 07:12:15;;;;;;;1.75;0.90;;;19.00;51.30;;;;;;5055849;28;20052;-48
2024/01/16 07:14:41;;;;;;;2.58;0.80;;;19.00;51.30;;;;;;5050515;28;20067;-47
2024/01/16 07:17:07;;;;;;;1.92;1.02;;;19.00;51.10;;;;;;5046903;28;20048;-47
2024/01/16 07:19:33;;;;;;;3.25;1.27;;;19.00;51.30;;;;;;5055932;28;20389;-48
2024/01/16 07:21:58;;;;;;;1.95;0.90;;;18.90;51.40;;;;;;5050329;28;20037;-47
2024/01/16 07:24:24;;;;;;;3.88;1.13;;;18.90;52.10;;;;;;5049205;28;20087;-48
2024/01/16 07:26:50;;;;;;;1.67;1.10;;;18.80;51.60;;;;;;5056097;28;20131;-49
2024/01/16 07:29:15;;;;;;;3.00;1.00;;;18.80;51.70;;;;;;5051585;28;20037;-56
2024/01/16 07:31:41;;;;;;;2.28;1.20;;;18.70;51.90;;;;;;5042626;28;20021;-45
2024/01/16 07:34:06;;;;;;;4.65;1.27;;;18.70;51.90;;;;;;5058807;28;20075;-51
2024/01/16 07:36:32;;;;;;;2.20;1.30;;;18.60;52.00;;;;;;5049533;28;20499;-55
2024/01/16 07:38:57;;;;;;;3.20;1.40;;;18.60;52.10;;;;;;5052540;28;20428;-45
2024/01/16 07:41:23;;;;;;;7.22;1.65;;;18.50;52.20;;;;;;5056586;28;20087;-48
2024/01/16 07:43:48;;;;;;;2.95;1.30;;;18.50;52.30;;;;;;5050483;28;20029;-54
2024/01/16 07:46:14;;;;;;;2.95;1.45;;;18.50;52.30;;;;;;5054476;28;20187;-56
2024/01/16 07:48:39;;;;;;;4.88;1.98;;;18.40;52.20;;;;;;5056191;28;20044;-44
2024/01/16 07:51:05;;;;;;;6.07;2.40;;;18.40;52.20;;;;;;5041708;28;20055;-48
2024/01/16 07:53:31;;;;;;;6.45;2.45;;;18.50;52.30;;;;;;5055647;28;20132;-49
2024/01/16 07:55:57;;;;;;;4.78;2.33;;;18.50;52.30;;;;;;5055666;28;20037;-49
2024/01/16 07:58:22;;;;;;;4.47;2.25;;;18.50;52.30;;;;;;5039758;28;20496;-51
2024/01/16 08:00:48;;;;;;;7.40;2.80;;;18.60;52.20;;;;;;5040690;28;20037;-45
2024/01/16 08:03:14;;;;;;;4.88;2.75;;;18.60;52.10;;;;;;5054765;28;20194;-45
2024/01/16 08:05:40;;;;;;;4.63;3.10;;;18.60;52.10;;;;;;5051660;28;20721;-46
2024/01/16 08:08:08;;;;;;;6.50;2.70;;;18.70;52.00;;;;;;5037877;28;20048;-53
2024/01/16 08:10:33;;;;;;;8.60;3.38;;;18.70;51.80;;;;;;5048636;28;20036;-53
2024/01/16 08:12:59;;;;;;;7.50;4.13;;;18.70;51.50;;;;;;5051917;28;20056;-52
2024/01/16 08:15:24;;;;;;;6.72;3.15;;;18.80;51.50;;;;;;5050047;28;20036;-53
2024/01/16 08:17:50;;;;;;;6.70;3.53;;;18.80;51.50;;;;;;5050842;28;20126;-50
2024/01/16 08:20:16;;;;;;;5.88;3.15;;;18.80;51.40;;;;;;5052623;28;20398;-59
2024/01/16 08:22:41;;;;;;;8.05;3.20;;;18.80;51.40;;;;;;5032674;28;20082;-48
2024/01/16 08:25:08;;;;;;;6.65;2.97;;;18.80;51.40;;;;;;5051168;28;20101;-55
2024/01/16 08:27:33;;;;;;;9.65;3.33;;;18.90;51.40;;;;;;5047827;28;20052;-47
2024/01/16 08:29:59;;;;;;;6.40;3.75;;;18.90;51.40;;;;;;5048716;28;20032;-47
2024/01/16 08:32:25;;;;;;;6.80;3.22;;;18.80;51.40;;;;;;5056895;28;20716;-47
2024/01/16 08:34:51;;;;;;;5.97;2.92;;;18.80;51.40;;;;;;5036965;28;20116;-52
2024/01/16 08:37:16;;;;;;;6.82;3.70;;;18.80;51.30;;;;;;5035941;28;20037;-51
2024/01/16 08:39:43;;;;;;;6.32;3.35;;;18.80;51.40;;;;;;5048606;28;20036;-54
2024/01/16 08:42:11;;;;;;;7.22;3.55;;;18.80;51.20;;;;;;5050114;28;20829;-55
2024/01/16 08:44:40;;;;;;;6.15;3.25;;;18.90;51.30;;;;;;5051465;28;20032;-49
2024/01/16 08:47:06;;;;;;;7.55;2.78;;;18.90;51.30;;;;;;5051249;28;20059;-50
2024/01/16 08:49:33;;;;;;;7.57;4.07;;;18.90;51.20;;;;;;5047981;28;20036;-53
2024/01/16 08:51:58;;;;;;;6.18;3.20;;;18.90;51.70;;;;;;5051135;28;20508;-46
2024/01/16 08:54:25;;;;;;;9.23;3.40;;;19.00;51.10;;;;;;5050515;28;20029;-50
2024/01/16 08:56:51;;;;;;;6.85;3.22;;;19.00;51.10;;;;;;5052234;28;20037;-53
2024/01/16 08:59:17;;;;;;;5.28;2.85;;;19.00;51.00;;;;;;5055078;28;20044;-46
2024/01/16 09:01:42;;;;;;;8.80;3.80;;;19.00;51.00;;;;;;5055206;28;20032;-58
2024/01/16 09:04:08;;;;;;;5.15;3.13;;;19.00;50.90;;;;;;5051832;28;20444;-50
2024/01/16 09:06:33;;;;;;;6.30;3.30;;;19.10;50.90;;;;;;5050691;28;20062;-49
2024/01/16 09:08:59;;;;;;;4.85;3.28;;;19.10;50.80;;;;;;5050161;28;20071;-55
2024/01/16 09:11:24;;;;;;;6.97;4.00;;;19.20;50.80;;;;;;5051660;28;20067;-52
2024/01/16 09:13:50;;;;;;;5.63;2.95;;;19.20;50.70;;;;;;5053118;28;20040;-53
2024/01/16 09:16:15;;;;;;;6.82;3.30;;;19.20;50.60;;;;;;5039870;28;20824;-55
2024/01/16 09:18:41;;;;;;;5.32;2.83;;;19.30;50.50;;;;;;5055019;28;20140;-52
2024/01/16 09:21:06;;;;;;;5.13;3.20;;;19.30;50.40;;;;;;5046120;28;20116;-57
2024/01/16 09:23:32;;;;;;;6.00;3.38;;;19.30;50.40;;;;;;5047582;28;20051;-57
2024/01/16 09:25:57;;;;;;;7.75;2.92;;;19.30;50.50;;;;;;5052293;28;20041;-46
2024/01/16 09:28:24;;;;;;;7.07;3.53;;;19.30;50.50;;;;;;5049879;28;20520;-48
2024/01/16 09:30:49;;;;;;;4.35;2.83;;;19.20;50.50;;;;;;5043894;28;20041;-49
2024/01/16 09:33:16;;;;;;;9.85;3.78;;;19.20;50.60;;;;;;5054257;28;20036;-47
2024/01/16 09:35:42;;;;;;;5.32;3.65;;;19.20;50.70;;;;;;5052045;28;20042;-57
2024/01/16 09:38:08;;;;;;;6.60;3.35;;;19.10;50.80;;;;;;5045798;28;20033;-53
2024/01/16 09:40:35;;;;;;;5.63;2.97;;;19.10;51.00;;;;;;5049659;28;20029;-50
2024/01/16 09:43:01;;;;;;;6.57;3.20;;;19.00;51.10;;;;;;5048061;28;20093;-56
2024/01/16 09:45:29;;;;;;;6.43;2.95;;;18.90;51.20;;;;;;5047834;28;20033;-51
2024/01/16 09:47:56;;;;;;;6.00;3.35;;;18.90;51.40;;;;;;5054704;28;20089;-55
2024/01/16 09:50:22;;;;;;;5.65;3.10;;;18.80;51.80;;;;;;5049811;28;20064;-57
2024/01/16 09:52:49;;;;;;;6.57;3.17;;;18.80;52.20;;;;;;5047612;28;20129;-54
2024/01/16 09:55:17;;;;;;;6.55;3.28;;;18.80;51.70;;;;;;5050779;28;20051;-56
2024/01/16 09:57:45;;;;;;;6.00;3.40;;;18.70;51.70;;;;;;5055855;28;20067;-50
2024/01/16 10:00:12;;;;;;;5.28;3.17;;;18.80;51.70;;;;;;5055022;28;20033;-52
2024/01/16 10:02:41;;;;;;;6.63;3.20;;;18.80;51.70;;;;;;5055501;28;20028;-50
2024/01/16 10:05:11;;;;;;;5.32;3.13;;;18.80;51.70;;;;;;5048593;28;20033;-56
2024/01/16 10:07:44;;;;;;;4.95;3.15;;;18.80;51.60;;;;;;5053440;28;20284;-50
2024/01/16 10:10:12;;;;;;;6.82;2.85;;;18.80;51.60;;;;;;5036878;28;20087;-55
2024/01/16 10:12:39;;;;;;;6.15;3.13;;;18.80;51.50;;;;;;5051959;28;20056;-51
2024/01/16 10:15:08;;;;;;;7.68;3.35;;;18.90;51.50;;;;;;5057005;28;20749;-50
2024/01/16 10:17:38;;;;;;;6.38;3.65;;;18.90;51.40;;;;;;5069384;22;20045;-55
2024/01/16 10:20:04;;;;;;;5.93;3.03;;;18.90;51.30;;;;;;5054323;28;20036;-54
2024/01/16 10:22:30;;;;;;;5.35;3.10;;;18.90;51.20;;;;;;5058282;28;20039;-51
2024/01/16 10:25:05;;;;;;;5.85;2.53;;;19.00;51.20;;;;;;5065499;28;20028;-53
2024/01/16 10:27:31;;;;;;;;;;;19.00;51.10;;;;;;5074178;28;20063;-54
2024/01/16 10:29:57;;;;;;;;;;;19.00;51.10;;;;;;5079946;28;20228;-52
2024/01/16 10:32:29;;;;;;;;;;;19.00;50.90;;;;;;5074149;28;20302;-53
2024/01/16 10:35:05;;;;;;;5.25;2.85;;;19.00;50.90;;;;;;5079672;28;20094;-54
2024/01/16 10:37:44;;;;;;;5.55;3.13;;;19.10;50.80;;;;;;5075978;28;20034;-56
2024/01/16 10:40:10;;;;;;;4.28;2.60;;;19.10;50.80;;;;;;5073319;28;20679;-54
2024/01/16 10:42:37;;;;;;;4.75;2.85;;;19.10;50.80;;;;;;5080411;28;20032;-56
2024/01/16 10:45:03;;;;;;;4.97;2.65;;;19.10;50.80;;;;;;5064210;28;20040;-56
2024/01/16 10:47:29;;;;;;;5.05;2.92;;;19.20;50.80;;;;;;5073829;28;20155;-57
2024/01/16 10:49:54;;;;;;;3.80;2.70;;;19.20;50.80;;;;;;5075166;28;20123;-54
2024/01/16 10:52:27;;;;;;;7.07;3.13;;;19.20;50.70;;;;;;5073775;28;20114;-56
2024/01/16 10:54:56;;;;;;;6.20;2.90;;;19.20;50.60;;;;;;5071968;28;20036;-55
2024/01/16 10:57:24;;;;;;;4.50;2.72;;;19.20;50.60;;;;;;5078331;28;20518;-57
2024/01/16 11:00:00;;;;;;;4.32;2.80;;;19.20;50.50;;;;;;5071631;28;20039;-56
2024/01/16 11:02:31;;;;;;;4.63;2.47;;;19.30;50.50;;;;;;5072018;28;20422;-54
2024/01/16 11:04:57;;;;;;;4.13;2.35;;;19.30;50.60;;;;;;5071846;28;20060;-54
2024/01/16 11:07:24;;;;;;;4.85;2.60;;;19.30;50.40;;;;;;5078029;28;20070;-60
2024/01/16 11:09:50;;;;;;;3.97;2.53;;;19.30;50.50;;;;;;5073471;28;20054;-55
2024/01/16 11:12:17;;;;;;;5.57;2.60;;;19.30;50.50;;;;;;5074632;28;20117;-55
2024/01/16 11:14:45;;;;;;;5.13;2.67;;;19.30;50.40;;;;;;5069123;28;20029;-54
2024/01/16 11:17:17;;;;;;;5.65;2.60;;;19.40;50.40;;;;;;5070133;28;20456;-56
2024/01/16 11:19:44;;;;;;;4.50;2.45;;;19.40;50.40;;;;;;5073795;28;20036;-54
2024/01/16 11:22:10;;;;;;;4.10;2.70;;;19.40;50.40;;;;;;5070849;28;20032;-56
2024/01/16 11:24:36;;;;;;;4.03;2.50;;;19.40;50.20;;;;;;5076024;28;20040;-56
2024/01/16 11:27:01;;;;;;;5.10;2.83;;;19.40;50.30;;;;;;5060708;28;20024;-54
2024/01/16 11:29:27;;;;;;;4.35;2.08;;;19.40;50.20;;;;;;5078128;28;20104;-55
2024/01/16 11:31:53;;;;;;;2.78;2.17;;;19.40;50.20;;;;;;5071387;28;20028;-55
2024/01/16 11:34:57;;;;;;;5.47;2.60;;;19.50;50.20;;;;;;5070735;28;20032;-56
2024/01/16 11:37:32;;;;;;;4.05;2.47;;;19.50;50.10;;;;;;4976143;28;20038;-56
2024/01/16 11:40:22;;;;;;;4.30;2.47;;;19.50;50.10;;;;;;4980600;28;20440;-54
2024/01/16 11:42:49;;;;;;;4.63;2.72;;;19.50;50.10;;;;;;5037440;22;20044;-48
2024/01/16 11:45:30;;;;;;;4.65;2.58;;;19.50;50.10;;;;;;5056157;28;20067;-53
2024/01/16 11:48:15;;;;;;;3.42;2.22;;;19.50;50.10;;;;;;5058579;28;20070;-47
2024/01/16 11:50:41;;;;;;;5.30;2.38;;;19.60;50.20;;;;;;5054343;28;20037;-48
2024/01/16 11:53:07;;;;;;;4.07;1.88;;;19.60;50.10;;;;;;5053719;28;20036;-46
2024/01/16 11:55:43;;;;;;;3.88;2.05;;;19.60;50.10;;;;;;5055959;28;20037;-48
2024/01/16 11:58:26;;;;;;;3.97;2.28;;;19.60;50.10;;;;;;5055804;28;20067;-48
2024/01/16 12:00:53;;;;;;;5.03;2.22;;;19.60;50.00;;;;;;5056683;28;20949;-47
2024/01/16 12:03:20;;;;;;;3.47;2.17;;;19.60;50.00;;;;;;5058615;28;20044;-46
2024/01/16 12:05:56;;;;;;;3.75;2.05;;;19.60;50.00;;;;;;5058165;28;20115;-47
2024/01/16 12:08:22;;;;;;;5.00;2.53;;;19.60;50.00;;;;;;5054697;28;20696;-49
2024/01/16 12:10:48;;;;;;;3.83;1.77;;;19.60;49.90;;;;;;5051425;28;20044;-49
2024/01/16 12:13:13;;;;;;;4.55;1.90;;;19.70;50.00;;;;;;5043719;28;20729;-46
2024/01/16 12:15:39;;;;;;;3.67;2.00;;;19.70;50.00;;;;;;5053489;28;20029;-51
2024/01/16 12:18:04;;;;;;;2.83;1.70;;;19.70;49.90;;;;;;5058143;28;20020;-49
2024/01/16 12:20:32;;;;;;;2.95;1.88;;;19.70;49.90;;;;;;5052101;28;20032;-47
2024/01/16 12:22:58;;;;;;;4.65;2.25;;;19.70;50.00;;;;;;5052868;28;20056;-48
2024/01/16 12:25:25;;;;;;;3.53;1.92;;;19.70;50.00;;;;;;5056428;28;20039;-48
2024/01/16 12:27:56;;;;;;;3.13;1.95;;;19.70;50.00;;;;;;5052764;28;20033;-44
2024/01/16 12:30:24;;;;;;;3.35;2.10;;;19.60;49.90;;;;;;5054646;28;20028;-46
2024/01/16 12:32:49;;;;;;;4.38;2.20;;;19.70;50.00;;;;;;5056407;28;20051;-44
2024/01/16 12:35:22;;;;;;;3.20;1.67;;;19.70;50.00;;;;;;5054902;28;20047;-48
2024/01/16 12:38:01;;;;;;;3.45;1.98;;;19.70;50.00;;;;;;5037307;28;20032;-48
2024/01/16 12:40:27;;;;;;;2.97;1.60;;;19.60;50.00;;;;;;5061592;28;20029;-51
2024/01/16 12:42:53;;;;;;;5.70;2.10;;;19.60;50.00;;;;;;5056572;28;20048;-47
2024/01/16 12:45:19;;;;;;;3.38;1.83;;;19.60;50.00;;;;;;5060313;28;20505;-50